Time;durP1;ratioP1;P1;durP2;ratioP2;P2;SDS_P1;SDS_P2;PMS_P1;PMS_P2;Temp;Humidity;BMP_temperature;BMP_pressure;BME280_temperature;BME280_humidity;BME280_pressure;Samples;Min_cycle;Max_cycle;Signal;HPM_P1;HPM_P2
2021/01/06 00:01:28;;;;;;;39.27;16.00;;;2.50;99.70;;;;;;4993394;28;20453;-69
2021/01/06 00:03:56;;;;;;;42.30;16.57;;;2.40;99.70;;;;;;4993250;28;20936;-69
2021/01/06 00:06:25;;;;;;;38.80;16.57;;;2.30;99.70;;;;;;4993104;28;20450;-71
2021/01/06 00:08:51;;;;;;;40.03;16.93;;;2.30;99.70;;;;;;4992279;28;20453;-71
2021/01/06 00:11:18;;;;;;;35.93;14.80;;;2.30;99.70;;;;;;4992838;28;20469;-68
2021/01/06 00:13:45;;;;;;;36.63;15.67;;;2.40;99.70;;;;;;4992650;28;20462;-68
2021/01/06 00:16:12;;;;;;;37.70;14.60;;;2.50;99.70;;;;;;4992827;28;20481;-68
2021/01/06 00:18:38;;;;;;;43.10;17.07;;;2.40;99.70;;;;;;4992044;28;20819;-68
2021/01/06 00:21:05;;;;;;;41.43;17.07;;;2.30;99.70;;;;;;4992756;28;20493;-68
2021/01/06 00:23:31;;;;;;;39.57;16.97;;;2.20;99.70;;;;;;4992669;28;20463;-72
2021/01/06 00:25:58;;;;;;;37.13;14.60;;;2.30;99.70;;;;;;4992523;28;20888;-71
2021/01/06 00:28:24;;;;;;;37.47;16.00;;;2.30;99.70;;;;;;4991797;28;20453;-70
2021/01/06 00:30:52;;;;;;;39.27;15.40;;;2.30;99.70;;;;;;4992624;28;20521;-69
2021/01/06 00:33:21;;;;;;;34.47;14.77;;;2.20;99.70;;;;;;4992563;28;20520;-71
2021/01/06 00:35:52;;;;;;;35.00;14.83;;;2.20;99.70;;;;;;4992316;28;20536;-66
2021/01/06 00:38:19;;;;;;;38.80;15.73;;;2.20;99.70;;;;;;4991789;28;20453;-71
2021/01/06 00:40:45;;;;;;;34.50;14.73;;;2.20;99.70;;;;;;4992338;28;20986;-70
2021/01/06 00:43:14;;;;;;;34.13;15.07;;;2.20;99.70;;;;;;4992456;28;20470;-69
2021/01/06 00:45:41;;;;;;;31.60;14.23;;;2.20;99.70;;;;;;4992283;28;20443;-69
2021/01/06 00:48:08;;;;;;;33.97;15.00;;;2.10;99.70;;;;;;4990360;28;20477;-69
2021/01/06 00:50:35;;;;;;;37.80;15.20;;;2.20;99.70;;;;;;4992232;28;21034;-67
2021/01/06 00:53:02;;;;;;;33.53;14.77;;;2.10;99.70;;;;;;4992092;28;20442;-68
2021/01/06 00:55:29;;;;;;;33.53;14.90;;;2.20;99.70;;;;;;4992020;28;20454;-69
2021/01/06 00:57:55;;;;;;;39.87;16.50;;;2.10;99.70;;;;;;4991224;28;20443;-68
2021/01/06 01:00:23;;;;;;;39.17;15.10;;;2.00;99.70;;;;;;4991812;28;20449;-69
2021/01/06 01:02:51;;;;;;;34.27;14.63;;;2.20;99.70;;;;;;4992080;28;20501;-69
2021/01/06 01:05:18;;;;;;;36.83;14.97;;;2.10;99.70;;;;;;4991858;28;20489;-70
2021/01/06 01:07:44;;;;;;;35.33;15.10;;;2.00;99.70;;;;;;4991117;28;20453;-68
2021/01/06 01:10:22;;;;;;;38.47;15.90;;;2.20;99.70;;;;;;4991837;28;20442;-70
2021/01/06 01:12:51;;;;;;;38.27;15.70;;;2.00;99.70;;;;;;4991776;28;20458;-68
2021/01/06 01:15:19;;;;;;;39.33;16.70;;;2.00;99.70;;;;;;4991541;28;20453;-69
2021/01/06 01:17:45;;;;;;;44.63;17.20;;;1.80;99.70;;;;;;4990704;28;20509;-70
2021/01/06 01:20:12;;;;;;;36.97;16.33;;;2.00;99.70;;;;;;4991741;28;20450;-68
2021/01/06 01:22:39;;;;;;;44.70;17.17;;;1.90;99.70;;;;;;4991586;28;20450;-68
2021/01/06 01:25:06;;;;;;;36.93;15.53;;;1.90;99.70;;;;;;4991531;28;21019;-69
2021/01/06 01:27:32;;;;;;;42.70;17.43;;;1.90;99.70;;;;;;4990581;28;20952;-69
2021/01/06 01:29:59;;;;;;;42.83;16.93;;;1.80;99.70;;;;;;4991580;28;20498;-68
2021/01/06 01:32:25;;;;;;;37.80;15.50;;;1.70;99.70;;;;;;4991380;28;20454;-69
2021/01/06 01:34:52;;;;;;;41.27;16.13;;;1.70;99.70;;;;;;4991509;28;20477;-68
2021/01/06 01:37:18;;;;;;;39.83;16.70;;;1.80;99.70;;;;;;4990464;28;20486;-68
2021/01/06 01:39:45;;;;;;;60.67;21.20;;;1.80;99.70;;;;;;4991351;28;20513;-68
2021/01/06 01:42:11;;;;;;;45.03;17.83;;;1.90;99.70;;;;;;4991292;28;20485;-68
2021/01/06 01:45:00;;;;;;;42.10;16.67;;;1.90;99.70;;;;;;4991391;28;20562;-68
2021/01/06 01:47:35;;;;;;;40.23;16.00;;;1.80;99.70;;;;;;4989510;28;20434;-69
2021/01/06 01:50:04;;;;;;;38.33;14.77;;;1.70;99.70;;;;;;4990836;28;20445;-68
2021/01/06 01:52:36;;;;;;;40.80;17.20;;;1.60;99.70;;;;;;4991177;28;20473;-71
2021/01/06 01:55:04;;;;;;;46.33;17.70;;;1.60;99.70;;;;;;4990929;28;20478;-75
2021/01/06 01:57:36;;;;;;;37.00;16.70;;;1.70;99.70;;;;;;4989867;28;20482;-71
2021/01/06 02:00:09;;;;;;;40.10;16.07;;;1.70;99.70;;;;;;4991019;28;20454;-69
2021/01/06 02:02:44;;;;;;;39.73;15.60;;;1.80;99.70;;;;;;4990843;28;20820;-68
2021/01/06 02:05:14;;;;;;;43.17;17.33;;;1.80;99.70;;;;;;4990878;28;20474;-68
2021/01/06 02:07:50;;;;;;;44.73;18.00;;;1.70;99.70;;;;;;4990063;28;20444;-69
2021/01/06 02:10:21;;;;;;;44.20;17.40;;;1.70;99.70;;;;;;4990532;28;20462;-67
2021/01/06 02:12:50;;;;;;;44.93;16.90;;;1.80;99.70;;;;;;4990560;28;20813;-68
2021/01/06 02:15:29;;;;;;;47.87;16.93;;;1.70;99.70;;;;;;4990602;28;20442;-71
2021/01/06 02:17:56;;;;;;;40.07;15.20;;;1.70;99.70;;;;;;4989690;28;20441;-66
2021/01/06 02:20:26;;;;;;;42.53;15.50;;;1.70;99.70;;;;;;4990697;28;20454;-70
2021/01/06 02:22:54;;;;;;;37.43;15.60;;;1.70;99.70;;;;;;4990724;28;20442;-66
2021/01/06 02:25:22;;;;;;;33.67;13.60;;;1.60;99.70;;;;;;4990629;28;20453;-68
2021/01/06 02:27:48;;;;;;;39.97;15.33;;;1.60;99.70;;;;;;4989461;28;20447;-68
2021/01/06 02:30:16;;;;;;;37.60;14.37;;;1.70;99.70;;;;;;4990453;28;20446;-67
2021/01/06 02:32:43;;;;;;;36.23;14.43;;;1.80;99.70;;;;;;4990442;28;20454;-70
2021/01/06 02:35:12;;;;;;;37.73;15.03;;;1.80;99.70;;;;;;4990376;28;20471;-69
2021/01/06 02:37:39;;;;;;;33.40;14.10;;;1.70;99.70;;;;;;4989396;28;20907;-68
2021/01/06 02:40:09;;;;;;;34.20;14.40;;;1.70;99.70;;;;;;4990195;28;20455;-69
2021/01/06 02:42:36;;;;;;;32.60;13.90;;;2.00;99.70;;;;;;4990113;28;20897;-72
2021/01/06 02:45:06;;;;;;;31.90;14.03;;;2.00;99.70;;;;;;4990305;28;20466;-72
2021/01/06 02:47:33;;;;;;;35.50;14.17;;;2.00;99.70;;;;;;4988263;28;20508;-68
2021/01/06 02:50:00;;;;;;;36.50;14.57;;;1.80;99.70;;;;;;4990169;28;20454;-68
2021/01/06 02:52:33;;;;;;;33.53;14.80;;;1.70;99.70;;;;;;4990195;28;20512;-70
2021/01/06 02:55:01;;;;;;;30.17;13.83;;;1.90;99.70;;;;;;4990255;28;20478;-69
2021/01/06 02:57:29;;;;;;;34.00;13.77;;;1.80;99.70;;;;;;4989480;28;20479;-70
2021/01/06 02:59:55;;;;;;;28.20;12.67;;;1.60;99.70;;;;;;4990230;28;20508;-67
2021/01/06 03:02:23;;;;;;;31.70;12.70;;;1.70;99.70;;;;;;4990156;28;20796;-69
2021/01/06 03:04:59;;;;;;;28.27;12.47;;;1.70;99.70;;;;;;4990233;28;20474;-66
2021/01/06 03:07:27;;;;;;;28.10;12.57;;;1.70;99.70;;;;;;4989166;28;20473;-68
2021/01/06 03:09:53;;;;;;;31.73;13.50;;;1.60;99.70;;;;;;4990137;28;20474;-67
2021/01/06 03:12:24;;;;;;;35.03;14.30;;;1.60;99.70;;;;;;4990050;28;20450;-68
2021/01/06 03:14:51;;;;;;;32.60;13.17;;;1.60;99.70;;;;;;4990034;28;20470;-68
2021/01/06 03:17:19;;;;;;;32.17;13.30;;;1.50;99.70;;;;;;4989169;28;20489;-68
2021/01/06 03:19:50;;;;;;;33.10;13.37;;;1.50;99.70;;;;;;4990033;28;20837;-68
2021/01/06 03:22:19;;;;;;;32.97;13.60;;;1.50;99.70;;;;;;4990897;28;20473;-70
2021/01/06 03:24:51;;;;;;;34.97;13.73;;;1.40;99.70;;;;;;4993826;28;20474;-68
2021/01/06 03:27:18;;;;;;;29.30;13.00;;;1.60;99.70;;;;;;4993024;28;20940;-68
2021/01/06 03:29:46;;;;;;;26.80;11.67;;;1.60;99.70;;;;;;4993751;28;20833;-72
2021/01/06 03:32:22;;;;;;;26.77;12.13;;;1.80;99.70;;;;;;4993781;28;20445;-69
2021/01/06 03:34:59;;;;;;;29.73;12.20;;;1.60;99.70;;;;;;4993811;28;20593;-68
2021/01/06 03:37:31;;;;;;;28.20;12.70;;;1.70;99.70;;;;;;4992845;28;20579;-69
2021/01/06 03:40:06;;;;;;;31.70;11.77;;;1.70;99.70;;;;;;4993827;28;20446;-68
2021/01/06 03:42:32;;;;;;;28.73;12.13;;;1.50;99.70;;;;;;4993994;28;20853;-68
2021/01/06 03:44:59;;;;;;;32.23;13.30;;;1.70;99.70;;;;;;4993811;28;20528;-68
2021/01/06 03:47:31;;;;;;;27.10;12.17;;;1.70;99.70;;;;;;4991767;28;20497;-69
2021/01/06 03:50:02;;;;;;;24.13;11.27;;;1.70;99.70;;;;;;4993732;28;20450;-69
2021/01/06 03:52:42;;;;;;;27.60;12.00;;;1.60;99.70;;;;;;4993635;28;20549;-68
2021/01/06 03:55:22;;;;;;;28.53;13.10;;;1.40;99.70;;;;;;4986092;28;21019;-67
2021/01/06 03:57:50;;;;;;;26.97;11.70;;;1.40;99.70;;;;;;4992346;28;20481;-68
2021/01/06 04:00:31;;;;;;;30.27;12.33;;;1.50;99.70;;;;;;4993331;28;21022;-69
2021/01/06 04:03:05;;;;;;;27.60;12.10;;;1.40;99.70;;;;;;4993233;28;20500;-69
2021/01/06 04:05:31;;;;;;;32.33;13.10;;;1.30;99.70;;;;;;4993171;28;20446;-69
2021/01/06 04:08:01;;;;;;;28.70;12.67;;;1.40;99.70;;;;;;4992247;28;20952;-69
2021/01/06 04:10:31;;;;;;;25.87;11.80;;;1.50;99.70;;;;;;4993266;28;20508;-69
2021/01/06 04:12:58;;;;;;;28.93;12.03;;;1.40;99.70;;;;;;4993090;28;20450;-71
2021/01/06 04:15:24;;;;;;;29.17;12.47;;;1.40;99.70;;;;;;4992807;28;20442;-68
2021/01/06 04:17:53;;;;;;;74.70;13.60;;;1.40;99.70;;;;;;4991905;28;20482;-69
2021/01/06 04:20:32;;;;;;;27.23;12.70;;;1.30;99.70;;;;;;4992995;28;20466;-67
2021/01/06 04:23:01;;;;;;;30.70;12.27;;;1.20;99.70;;;;;;4992960;28;20450;-68
2021/01/06 04:25:29;;;;;;;29.00;13.20;;;1.40;99.70;;;;;;4992989;28;20473;-68
2021/01/06 04:27:58;;;;;;;29.20;13.30;;;1.40;99.70;;;;;;4992089;28;20439;-68
2021/01/06 04:30:31;;;;;;;27.37;12.70;;;1.40;99.70;;;;;;4992603;28;20449;-69
2021/01/06 04:32:59;;;;;;;24.83;11.40;;;1.50;99.70;;;;;;4992564;28;20450;-69
2021/01/06 04:35:29;;;;;;;29.10;12.73;;;1.60;99.70;;;;;;4991653;28;20458;-69
2021/01/06 04:37:55;;;;;;;31.07;12.43;;;1.60;99.70;;;;;;4991724;28;20482;-69
2021/01/06 04:40:23;;;;;;;29.20;14.97;;;1.40;99.70;;;;;;4992510;28;20951;-69
2021/01/06 04:42:50;;;;;;;26.90;12.70;;;1.30;99.70;;;;;;4992466;28;20480;-70
2021/01/06 04:45:22;;;;;;;28.30;11.53;;;1.40;99.70;;;;;;4992352;28;20450;-70
2021/01/06 04:48:12;;;;;;;29.60;12.90;;;1.50;99.70;;;;;;4990207;28;20808;-69
2021/01/06 04:51:00;;;;;;;28.33;12.20;;;1.40;99.70;;;;;;4992321;28;20485;-69
2021/01/06 04:53:37;;;;;;;28.37;12.10;;;1.50;99.70;;;;;;5013892;23;20481;-71
2021/01/06 04:56:18;;;;;;;26.07;11.57;;;1.40;99.70;;;;;;4984305;28;20477;-69
2021/01/06 04:58:56;;;;;;;25.80;10.97;;;1.40;99.70;;;;;;4991471;28;20450;-70
2021/01/06 05:01:53;;;;;;;28.00;12.53;;;1.50;99.70;;;;;;4992243;28;20454;-68
2021/01/06 05:04:48;;;;;;;28.27;12.57;;;1.30;99.70;;;;;;4992059;28;20466;-69
2021/01/06 05:07:25;;;;;;;25.47;11.43;;;1.40;99.70;;;;;;4991279;28;20944;-70
2021/01/06 05:10:00;;;;;;;29.27;12.07;;;1.40;99.70;;;;;;4991882;28;20435;-71
2021/01/06 05:12:31;;;;;;;30.60;13.03;;;1.30;99.70;;;;;;4991973;28;20540;-70
2021/01/06 05:15:19;;;;;;;29.77;12.60;;;1.30;99.70;;;;;;4991759;28;20474;-71
2021/01/06 05:17:45;;;;;;;29.40;13.00;;;1.30;99.70;;;;;;4990892;28;20482;-70
2021/01/06 05:20:11;;;;;;;30.00;11.90;;;1.30;99.70;;;;;;4991814;28;20827;-70
2021/01/06 05:22:38;;;;;;;31.83;14.10;;;1.40;99.70;;;;;;4991768;28;20451;-71
2021/01/06 05:25:06;;;;;;;31.83;12.70;;;1.30;99.70;;;;;;4991525;28;20593;-70
2021/01/06 05:27:38;;;;;;;29.00;12.27;;;1.20;99.70;;;;;;4990852;28;20767;-71
2021/01/06 05:30:17;;;;;;;29.63;12.57;;;1.30;99.70;;;;;;4991588;28;20446;-70
2021/01/06 05:32:43;;;;;;;33.00;12.63;;;1.30;99.70;;;;;;4991515;28;20472;-70
2021/01/06 05:35:14;;;;;;;31.90;12.97;;;1.30;99.70;;;;;;4991416;28;20462;-70
2021/01/06 05:37:43;;;;;;;30.90;12.90;;;1.40;99.70;;;;;;4990547;28;20477;-71
2021/01/06 05:40:12;;;;;;;30.97;13.00;;;1.40;99.70;;;;;;4991282;28;20458;-70
2021/01/06 05:42:42;;;;;;;26.67;11.40;;;1.40;99.70;;;;;;4991370;28;20458;-71
2021/01/06 05:45:10;;;;;;;27.87;12.73;;;1.30;99.70;;;;;;4991014;28;20474;-71
2021/01/06 05:47:41;;;;;;;28.90;12.57;;;1.40;99.70;;;;;;4989201;28;20504;-70
2021/01/06 05:50:13;;;;;;;29.27;13.03;;;1.20;99.70;;;;;;4991156;28;20451;-71
2021/01/06 05:52:39;;;;;;;29.70;13.93;;;1.10;99.70;;;;;;4991283;28;20450;-71
2021/01/06 05:55:13;;;;;;;27.50;12.23;;;1.10;99.70;;;;;;4990886;28;20826;-70
2021/01/06 05:57:45;;;;;;;32.13;13.13;;;1.00;99.70;;;;;;4990254;28;20483;-70
2021/01/06 06:00:42;;;;;;;29.83;12.77;;;1.10;99.70;;;;;;4990916;28;20486;-70
2021/01/06 06:03:42;;;;;;;30.00;13.03;;;1.10;99.70;;;;;;4991128;28;20943;-71
2021/01/06 06:06:45;;;;;;;25.93;12.10;;;1.10;99.70;;;;;;4990830;28;20442;-70
2021/01/06 06:09:17;;;;;;;28.90;12.07;;;1.10;99.70;;;;;;4960608;28;20847;-70
2021/01/06 06:12:34;;;;;;;28.87;12.60;;;1.10;99.70;;;;;;4990684;28;20454;-70
2021/01/06 06:15:41;;;;;;;29.07;12.00;;;1.10;99.70;;;;;;4990720;28;20492;-70
2021/01/06 06:18:28;;;;;;;31.00;12.13;;;1.10;99.70;;;;;;4989849;28;20556;-71
2021/01/06 06:20:59;;;;;;;28.93;11.93;;;1.10;99.70;;;;;;4990576;28;20463;-70
2021/01/06 06:23:52;;;;;;;25.43;12.23;;;1.30;99.70;;;;;;4990610;28;20453;-70
2021/01/06 06:26:24;;;;;;;24.37;12.00;;;1.30;99.70;;;;;;4990577;28;20951;-71
2021/01/06 06:28:57;;;;;;;27.87;12.20;;;1.20;99.70;;;;;;4989813;28;20454;-70
2021/01/06 06:31:29;;;;;;;28.10;12.23;;;1.20;99.70;;;;;;4990529;28;20446;-68
2021/01/06 06:33:59;;;;;;;23.00;11.73;;;1.10;99.70;;;;;;4990387;28;20549;-70
2021/01/06 06:36:28;;;;;;;23.47;11.10;;;1.20;99.70;;;;;;4990474;28;20482;-70
2021/01/06 06:38:55;;;;;;;25.77;12.27;;;1.30;99.70;;;;;;4989655;28;20881;-70
2021/01/06 06:41:29;;;;;;;25.77;12.20;;;1.30;99.70;;;;;;4990440;28;20943;-71
2021/01/06 06:44:23;;;;;;;24.50;11.33;;;1.30;99.70;;;;;;4990101;28;20469;-71
2021/01/06 06:47:00;;;;;;;25.47;12.57;;;1.40;99.70;;;;;;4989384;28;20450;-71
2021/01/06 06:49:36;;;;;;;56.57;22.97;;;1.40;99.70;;;;;;4988918;28;20454;-71
2021/01/06 06:52:09;;;;;;;43.13;18.67;;;1.50;99.70;;;;;;4990173;28;20945;-71
2021/01/06 06:54:44;;;;;;;54.97;23.37;;;1.40;99.70;;;;;;4990164;28;20481;-71
2021/01/06 06:57:18;;;;;;;31.47;16.30;;;1.30;99.70;;;;;;4988833;28;20576;-71
2021/01/06 06:59:54;;;;;;;145.60;65.50;;;1.30;99.70;;;;;;4990238;28;20800;-70
2021/01/06 07:02:21;;;;;;;51.40;29.17;;;1.50;99.70;;;;;;4990194;28;20477;-71
2021/01/06 07:04:50;;;;;;;28.23;13.77;;;1.50;99.70;;;;;;4990039;28;20470;-71
2021/01/06 07:07:34;;;;;;;23.50;12.60;;;1.40;99.70;;;;;;4989318;28;20466;-71
2021/01/06 07:10:03;;;;;;;26.67;13.10;;;1.30;99.70;;;;;;4990093;28;20513;-71
2021/01/06 07:12:39;;;;;;;28.47;13.03;;;1.20;99.70;;;;;;4989893;28;20454;-71
2021/01/06 07:15:19;;;;;;;30.00;13.40;;;1.30;99.70;;;;;;4989848;28;20545;-71
2021/01/06 07:17:45;;;;;;;26.00;13.30;;;1.30;99.70;;;;;;4988926;28;20597;-70
2021/01/06 07:20:14;;;;;;;26.07;12.67;;;1.30;99.70;;;;;;4989968;28;20454;-72
2021/01/06 07:22:44;;;;;;;23.70;12.77;;;1.30;99.70;;;;;;4989979;28;20454;-71
2021/01/06 07:25:26;;;;;;;26.60;11.10;;;1.30;99.70;;;;;;4989891;28;20462;-71
2021/01/06 07:27:55;;;;;;;23.77;11.70;;;1.30;99.70;;;;;;4988892;28;20442;-71
2021/01/06 07:30:35;;;;;;;27.80;13.10;;;1.40;99.70;;;;;;4990079;28;20446;-71
2021/01/06 07:33:11;;;;;;;25.03;10.70;;;1.30;99.70;;;;;;4989982;28;20453;-71
2021/01/06 07:35:39;;;;;;;20.87;11.00;;;1.30;99.70;;;;;;4989842;28;20473;-71
2021/01/06 07:38:07;;;;;;;26.27;13.23;;;1.30;99.70;;;;;;4988761;28;20487;-71
2021/01/06 07:40:36;;;;;;;26.57;13.20;;;1.30;99.70;;;;;;4989874;28;20961;-71
2021/01/06 07:43:18;;;;;;;25.73;13.50;;;1.50;99.70;;;;;;4989703;28;20454;-68
2021/01/06 07:45:52;;;;;;;21.90;10.40;;;1.40;99.70;;;;;;4989820;28;20469;-71
2021/01/06 07:48:29;;;;;;;23.03;11.30;;;1.20;99.70;;;;;;4987602;28;20442;-72
2021/01/06 07:51:05;;;;;;;20.53;11.90;;;1.30;99.70;;;;;;4989800;28;20880;-71
2021/01/06 07:53:39;;;;;;;27.90;14.60;;;1.20;99.70;;;;;;4989320;28;20446;-71
2021/01/06 07:56:16;;;;;;;22.47;10.97;;;1.30;99.70;;;;;;4989473;28;20446;-70
2021/01/06 07:58:45;;;;;;;25.57;12.10;;;1.30;99.70;;;;;;4988692;28;20446;-69
2021/01/06 08:01:31;;;;;;;21.67;11.10;;;1.30;99.70;;;;;;4989781;28;20986;-71
2021/01/06 08:04:02;;;;;;;19.60;11.13;;;1.30;99.70;;;;;;4989519;28;20466;-71
2021/01/06 08:06:39;;;;;;;21.97;10.90;;;1.30;99.70;;;;;;4989557;28;20450;-71
2021/01/06 08:09:05;;;;;;;22.93;10.63;;;1.30;99.70;;;;;;4989610;28;20450;-71
2021/01/06 08:11:45;;;;;;;21.30;11.10;;;1.10;99.70;;;;;;4993079;28;20447;-71
2021/01/06 08:14:20;;;;;;;24.13;12.40;;;1.10;99.70;;;;;;4993161;28;20465;-70
2021/01/06 08:16:52;;;;;;;25.67;11.20;;;1.20;99.70;;;;;;4992057;28;20490;-67
2021/01/06 08:19:21;;;;;;;22.27;10.70;;;1.20;99.70;;;;;;4993192;28;20477;-71
2021/01/06 08:21:53;;;;;;;24.50;11.50;;;1.20;99.70;;;;;;4992873;28;20451;-71
2021/01/06 08:24:33;;;;;;;20.10;11.27;;;1.20;99.70;;;;;;4993025;28;20466;-71
2021/01/06 08:27:02;;;;;;;26.50;13.80;;;1.20;99.70;;;;;;4992037;28;20450;-70
2021/01/06 08:29:30;;;;;;;23.97;12.27;;;1.40;99.70;;;;;;4992861;28;20439;-71
2021/01/06 08:32:02;;;;;;;23.07;12.40;;;1.40;99.70;;;;;;4992804;28;20458;-71
2021/01/06 08:34:31;;;;;;;20.10;10.63;;;1.20;99.70;;;;;;4992865;28;20490;-70
2021/01/06 08:37:01;;;;;;;19.93;10.33;;;1.20;99.70;;;;;;4991798;28;20494;-70
2021/01/06 08:39:30;;;;;;;24.00;11.87;;;1.30;99.70;;;;;;4992799;28;20446;-71
2021/01/06 08:42:10;;;;;;;24.30;12.40;;;1.40;99.70;;;;;;4992561;28;20496;-71
2021/01/06 08:44:43;;;;;;;24.60;11.90;;;1.30;99.70;;;;;;4992633;28;20462;-71
2021/01/06 08:47:13;;;;;;;22.30;10.90;;;1.20;99.70;;;;;;4984416;28;20470;-71
2021/01/06 08:49:42;;;;;;;30.10;14.93;;;1.30;99.70;;;;;;4988895;28;20470;-71
2021/01/06 08:52:24;;;;;;;23.40;11.73;;;1.30;99.70;;;;;;4992249;28;20451;-70
2021/01/06 08:55:06;;;;;;;23.77;12.17;;;1.10;99.70;;;;;;4992410;28;20858;-70
2021/01/06 08:57:34;;;;;;;22.13;10.60;;;1.20;99.70;;;;;;4990185;28;20550;-71
2021/01/06 09:00:15;;;;;;;22.13;10.80;;;1.10;99.70;;;;;;4992462;28;20461;-71
2021/01/06 09:02:47;;;;;;;21.37;10.83;;;1.30;99.70;;;;;;4992059;28;20446;-71
2021/01/06 09:05:47;;;;;;;21.37;10.00;;;1.30;99.70;;;;;;4992355;28;20477;-71
2021/01/06 09:08:15;;;;;;;22.23;10.90;;;1.30;99.70;;;;;;4991316;28;20442;-70
2021/01/06 09:10:49;;;;;;;22.43;10.90;;;1.30;99.70;;;;;;4992104;28;20446;-71
2021/01/06 09:13:19;;;;;;;24.97;10.70;;;1.50;99.70;;;;;;4992010;28;20461;-71
2021/01/06 09:15:49;;;;;;;22.30;10.50;;;1.40;99.70;;;;;;4991925;28;20496;-71
2021/01/06 09:18:21;;;;;;;21.67;10.57;;;1.30;99.70;;;;;;4991073;28;20479;-71
2021/01/06 09:21:20;;;;;;;28.40;12.43;;;1.30;99.70;;;;;;4991291;28;20450;-71
2021/01/06 09:23:49;;;;;;;21.53;11.47;;;1.20;99.70;;;;;;4969006;28;20790;-69
2021/01/06 09:26:18;;;;;;;25.23;11.30;;;1.10;99.70;;;;;;4973803;28;20894;-71
2021/01/06 09:28:51;;;;;;;25.87;10.97;;;1.40;99.70;;;;;;4988143;28;20454;-70
2021/01/06 09:31:18;;;;;;;20.23;10.50;;;1.30;99.70;;;;;;4972064;28;20896;-71
2021/01/06 09:33:46;;;;;;;22.13;9.80;;;1.30;99.70;;;;;;4987985;28;20466;-70
2021/01/06 09:36:13;;;;;;;20.20;9.50;;;1.50;99.70;;;;;;4991377;28;20482;-71
2021/01/06 09:38:45;;;;;;;19.20;9.60;;;1.40;99.70;;;;;;4990635;28;21198;-71
2021/01/06 09:41:14;;;;;;;21.30;10.00;;;1.30;99.70;;;;;;4991456;28;20439;-71
2021/01/06 09:43:47;;;;;;;20.13;10.60;;;1.50;99.70;;;;;;4991154;28;20462;-71
2021/01/06 09:46:15;;;;;;;19.23;9.47;;;1.40;99.70;;;;;;4981866;28;20459;-71
2021/01/06 09:48:45;;;;;;;19.77;9.97;;;1.30;99.70;;;;;;4984483;28;20458;-70
2021/01/06 09:51:16;;;;;;;18.47;9.73;;;1.30;99.70;;;;;;4991288;28;20439;-70
2021/01/06 09:53:43;;;;;;;20.10;9.80;;;1.40;99.70;;;;;;5010372;28;20986;-70
2021/01/06 09:56:13;;;;;;;23.13;10.07;;;1.30;99.70;;;;;;5010808;28;20810;-70
2021/01/06 09:58:41;;;;;;;19.43;9.60;;;1.20;99.70;;;;;;5009976;28;20956;-70
2021/01/06 10:01:15;;;;;;;20.40;10.27;;;1.10;99.70;;;;;;5010517;28;20457;-71
2021/01/06 10:03:44;;;;;;;18.63;9.80;;;1.40;99.70;;;;;;5010650;28;20873;-70
2021/01/06 10:06:27;;;;;;;22.73;10.20;;;1.30;99.70;;;;;;4993557;28;20551;-71
2021/01/06 10:08:59;;;;;;;19.07;9.80;;;1.50;99.70;;;;;;4988205;28;20442;-71
2021/01/06 10:11:50;;;;;;;19.90;9.30;;;1.60;99.70;;;;;;4989078;28;20824;-71
2021/01/06 10:14:33;;;;;;;21.03;10.10;;;1.60;99.70;;;;;;4989008;28;20481;-72
2021/01/06 10:17:04;;;;;;;20.33;9.93;;;1.70;99.70;;;;;;4988084;28;20481;-71
2021/01/06 10:19:39;;;;;;;18.50;9.20;;;1.50;99.70;;;;;;4989040;28;20493;-71
2021/01/06 10:22:24;;;;;;;21.07;10.10;;;1.50;99.70;;;;;;4989877;28;20804;-72
2021/01/06 10:25:28;;;;;;;25.50;9.83;;;1.50;99.70;;;;;;4988010;28;20509;-71
2021/01/06 10:27:58;;;;;;;19.77;8.43;;;1.50;99.70;;;;;;4989648;28;20927;-72
2021/01/06 10:30:26;;;;;;;32.13;15.70;;;1.70;99.70;;;;;;4990492;28;20458;-71
2021/01/06 10:33:10;;;;;;;72.57;27.37;;;1.50;99.70;;;;;;4990045;28;20438;-72
2021/01/06 10:35:44;;;;;;;26.67;13.67;;;1.50;99.70;;;;;;4990239;28;20468;-72
2021/01/06 10:38:22;;;;;;;30.07;15.90;;;1.30;99.70;;;;;;4989519;28;21018;-72
2021/01/06 10:40:49;;;;;;;26.20;13.13;;;1.30;99.70;;;;;;4990347;28;20438;-71
2021/01/06 10:43:36;;;;;;;36.20;19.10;;;1.20;99.70;;;;;;4990400;28;20903;-71
2021/01/06 10:46:23;;;;;;;23.70;12.10;;;1.20;99.70;;;;;;4990488;28;20454;-70
2021/01/06 10:48:50;;;;;;;26.13;13.97;;;1.30;99.70;;;;;;4987180;28;20458;-70
2021/01/06 10:52:03;;;;;;;21.83;11.67;;;1.30;99.70;;;;;;4990464;28;20839;-71
2021/01/06 10:54:38;;;;;;;24.37;11.70;;;1.40;99.70;;;;;;5028729;23;20476;-67
2021/01/06 10:57:25;;;;;;;24.97;12.07;;;1.30;99.70;;;;;;5020828;28;20537;-67
2021/01/06 11:00:17;;;;;;;28.10;11.40;;;1.40;99.70;;;;;;5029436;28;20448;-67
2021/01/06 11:03:22;;;;;;;26.60;13.40;;;1.30;99.70;;;;;;5029433;28;20451;-67
2021/01/06 11:06:10;;;;;;;23.93;12.00;;;1.20;99.70;;;;;;5029280;28;20465;-69
2021/01/06 11:08:52;;;;;;;30.73;11.03;;;1.10;99.70;;;;;;5019601;28;20449;-67
2021/01/06 11:11:44;;;;;;;35.37;11.20;;;1.10;99.70;;;;;;5024683;28;20827;-68
2021/01/06 11:14:26;;;;;;;30.50;13.27;;;1.10;99.70;;;;;;5009457;28;20457;-68
2021/01/06 11:16:57;;;;;;;22.83;11.30;;;1.10;99.70;;;;;;5017085;28;20476;-67
2021/01/06 11:19:44;;;;;;;26.90;12.87;;;1.20;99.70;;;;;;5029227;28;20445;-67
2021/01/06 11:22:39;;;;;;;24.60;11.90;;;1.20;99.70;;;;;;5029700;28;20448;-66
2021/01/06 11:25:35;;;;;;;29.43;14.60;;;1.30;99.70;;;;;;5021023;28;20468;-68
2021/01/06 11:28:23;;;;;;;25.60;13.27;;;1.40;99.70;;;;;;5028468;28;20468;-67
2021/01/06 11:31:21;;;;;;;21.33;11.10;;;1.20;99.70;;;;;;5029218;28;20441;-67
2021/01/06 11:33:49;;;;;;;26.07;12.57;;;1.30;99.70;;;;;;5029000;28;20464;-67
2021/01/06 11:36:42;;;;;;;22.67;10.53;;;1.40;99.70;;;;;;5029162;28;20441;-67
2021/01/06 11:39:12;;;;;;;22.67;10.60;;;1.20;99.70;;;;;;5023494;28;20485;-68
2021/01/06 11:42:05;;;;;;;29.70;12.83;;;1.40;99.70;;;;;;5018821;28;20458;-68
2021/01/06 11:44:37;;;;;;;22.60;11.90;;;1.40;99.70;;;;;;5016368;28;20480;-68
2021/01/06 11:47:20;;;;;;;26.03;11.07;;;1.50;99.70;;;;;;5031495;28;20453;-65
2021/01/06 11:50:00;;;;;;;27.20;12.20;;;1.40;99.70;;;;;;5032503;28;20858;-68
2021/01/06 11:52:38;;;;;;;24.07;10.17;;;1.30;99.70;;;;;;5032653;28;20857;-67
2021/01/06 11:55:23;;;;;;;27.27;11.63;;;1.40;99.70;;;;;;5023452;28;21020;-68
2021/01/06 11:57:59;;;;;;;25.27;11.43;;;1.40;99.70;;;;;;5020480;28;21000;-67
2021/01/06 12:00:48;;;;;;;27.40;12.03;;;1.30;99.70;;;;;;5030773;28;20428;-67
2021/01/06 12:03:27;;;;;;;22.93;10.60;;;1.30;99.70;;;;;;5031624;28;20487;-67
2021/01/06 12:06:24;;;;;;;22.40;10.87;;;1.20;99.70;;;;;;5023761;28;20468;-68
2021/01/06 12:09:08;;;;;;;27.63;11.37;;;1.20;99.70;;;;;;5030814;28;20448;-69
2021/01/06 12:11:39;;;;;;;29.57;12.13;;;1.20;99.70;;;;;;5030822;28;20451;-67
2021/01/06 12:14:23;;;;;;;23.53;11.77;;;1.30;99.70;;;;;;5031211;28;21068;-68
2021/01/06 12:16:55;;;;;;;27.57;12.00;;;1.50;99.70;;;;;;5020867;28;20500;-68
2021/01/06 12:19:32;;;;;;;27.20;11.67;;;1.50;99.70;;;;;;5020680;28;20445;-67
2021/01/06 12:22:15;;;;;;;24.77;11.43;;;1.30;99.70;;;;;;5016613;28;20516;-67
2021/01/06 12:25:00;;;;;;;29.00;12.97;;;1.30;99.70;;;;;;5014175;28;20476;-67
2021/01/06 12:27:58;;;;;;;22.50;10.60;;;1.40;99.70;;;;;;5022791;28;20442;-65
2021/01/06 12:30:47;;;;;;;25.27;11.80;;;1.40;99.70;;;;;;5009405;28;20476;-70
2021/01/06 12:33:31;;;;;;;27.37;12.50;;;1.30;99.70;;;;;;5010166;28;20524;-68
2021/01/06 12:36:12;;;;;;;31.97;13.00;;;1.40;99.70;;;;;;5018584;28;21011;-67
2021/01/06 12:38:39;;;;;;;25.83;11.67;;;1.40;99.70;;;;;;5013138;28;20519;-67
2021/01/06 12:41:11;;;;;;;33.60;12.33;;;1.40;99.70;;;;;;5017441;28;20436;-67
2021/01/06 12:43:41;;;;;;;28.80;12.60;;;1.30;99.70;;;;;;5020913;28;20517;-68
2021/01/06 12:46:20;;;;;;;26.40;12.17;;;1.20;99.70;;;;;;5027865;28;20507;-68
2021/01/06 12:49:01;;;;;;;28.70;11.83;;;1.30;99.70;;;;;;5025932;28;20444;-68
2021/01/06 12:51:32;;;;;;;26.90;12.40;;;1.40;99.70;;;;;;5026439;28;20958;-68
2021/01/06 12:54:01;;;;;;;31.63;12.60;;;1.30;99.70;;;;;;5026143;28;20452;-69
2021/01/06 12:56:37;;;;;;;30.23;12.43;;;1.20;99.70;;;;;;5026105;28;20453;-68
2021/01/06 12:59:09;;;;;;;27.17;11.27;;;1.30;99.70;;;;;;5026097;28;20436;-67
2021/01/06 13:01:44;;;;;;;24.67;12.13;;;1.30;99.70;;;;;;5028230;28;20448;-67
2021/01/06 13:04:13;;;;;;;32.83;12.80;;;1.30;99.70;;;;;;5027744;28;20464;-69
2021/01/06 13:06:44;;;;;;;27.70;12.60;;;1.40;99.70;;;;;;5026953;28;20448;-67
2021/01/06 13:09:32;;;;;;;29.80;12.47;;;1.50;99.70;;;;;;5047085;28;20843;-69
2021/01/06 13:12:03;;;;;;;28.47;13.17;;;1.40;99.70;;;;;;5047375;28;20798;-67
2021/01/06 13:14:43;;;;;;;56.10;18.67;;;1.40;99.70;;;;;;5047707;28;20875;-68